Bremen — C6JC3 — position and weather

sailwx.info

Track history (hours):
 
Tides and Currents Weather Stations Pressure Air Temp Water Temp Dewpoint Dewpoint Depression Visibility Wind Speed Wind Dir Waves Ship Positions

Bremen

Operator: Hapag-Lloyd Container Line

Last reported at 2019-Oct-10 00:49 UTC. Time now 2019-Oct-22 23:35 UTC.
Position N 37°32' W 010°45'.
Warning: this ship's position is 12 days out of date.

Length 111.5 m; beam 17 m; draft 4.8 m.

Type: Ship. MMSI: 308429000.

Date/timePositionNaut miles runAvg speedWind from/ knotsBaromVisibWave heightAir tempDewpointWater temp
2019-Oct-10 00:49N 37°32' W 010°45'414.2
2019-Oct-10 00:30N 37°35' W 010°41'714.4
2019-Oct-10 00:00N 37°40' W 010°35'814.1
2019-Oct-09 23:26N 37°46' W 010°28'614.4
2019-Oct-09 23:00N 37°50' W 010°22'714.5
2019-Oct-09 22:30N 37°55' W 010°15'714.3
2019-Oct-09 22:00N 38°00' W 010°09'714.5
2019-Oct-09 21:30N 38°06' W 010°03'714.3
2019-Oct-09 21:01N 38°11' W 009°57'714.3
2019-Oct-09 20:31N 38°15' W 009°50'714.6
2019-Oct-09 20:00N 38°21' W 009°43'714.7
2019-Oct-09 19:30N 38°26' W 009°37'714.8
2019-Oct-09 19:01N 38°31' W 009°30'815.0
2019-Oct-09 18:30N 38°37' W 009°23'714.4
2019-Oct-09 18:01N 38°41' W 009°16'611.8
2019-Oct-09 17:31N 38°42' W 009°09'2 3.0
2019-Oct-09 16:58N 38°43' W 009°07'0 0.0
2019-Oct-09 16:28N 38°43' W 009°07'0 0.0
2019-Oct-09 15:58N 38°43' W 009°07'0 0.0
2019-Oct-09 15:30N 38°43' W 009°07'0 0.0
2019-Oct-09 15:00N 38°43' W 009°07'0 0.0
2019-Oct-09 14:30N 38°43' W 009°07'0 0.0
2019-Oct-09 13:59N 38°43' W 009°07'0 0.0
2019-Oct-09 13:28N 38°43' W 009°07'0 0.0
2019-Oct-09 12:58N 38°43' W 009°07'0 0.0
2019-Oct-09 12:27N 38°43' W 009°07'0 0.0
2019-Oct-09 11:59N 38°43' W 009°07'0 0.0
2019-Oct-09 11:30N 38°43' W 009°07'0 0.0
2019-Oct-09 11:00N 38°43' W 009°07'0 0.0
2019-Oct-09 10:30N 38°43' W 009°07'0 0.0
2019-Oct-09 10:00N 38°43' W 009°07'0 0.0
2019-Oct-09 09:30N 38°43' W 009°07'0 0.0
2019-Oct-09 08:59N 38°43' W 009°07'0 0.0
2019-Oct-09 08:28N 38°43' W 009°07'0 0.0
2019-Oct-09 07:59N 38°43' W 009°07'0 0.4
2019-Oct-09 07:30N 38°43' W 009°07'5 9.8
2019-Oct-09 07:00N 38°41' W 009°13'4 8.9
2019-Oct-09 06:30N 38°40' W 009°19'4 8.8
2019-Oct-09 06:00N 38°37' W 009°23'5 9.4
2019-Oct-09 05:30N 38°37' W 009°29'5 9.8
2019-Oct-09 05:00N 38°37' W 009°35'5 9.3
2019-Oct-09 04:30N 38°39' W 009°41'5 9.6
2019-Oct-09 04:00N 38°44' W 009°42'510.3
2019-Oct-09 03:30N 38°49' W 009°42'510.3
2019-Oct-09 03:00N 38°54' W 009°43'510.3
2019-Oct-09 02:30N 38°59' W 009°43'510.3
2019-Oct-09 02:00N 39°04' W 009°44'510.2
2019-Oct-09 01:30N 39°09' W 009°44'510.1
2019-Oct-09 01:00N 39°14' W 009°45'510.3
2019-Oct-09 00:30N 39°20' W 009°45'610.3
2019-Oct-08 23:53N 39°26' W 009°46'51811.4
2019-Oct-07 02:36N 47°52' W 007°16'210 8.7
2019-Oct-06 02:35N 51°17' W 006°03'112.0
2019-Oct-06 02:30N 51°18' W 006°03'612.7
2019-Oct-06 02:00N 51°24' W 006°02'713.7
2019-Oct-06 01:30N 51°31' W 006°01'7013.8
2019-Oct-05 20:23N 52°41' W 005°51'615.8
2019-Oct-05 20:00N 52°47' W 005°52'815.9
2019-Oct-05 19:30N 52°55' W 005°53'816.2
2019-Oct-05 19:00N 53°03' W 005°55'815.8
2019-Oct-05 18:30N 53°11' W 005°58'715.1
2019-Oct-05 18:00N 53°18' W 006°02'510.3
2019-Oct-05 17:30N 53°21' W 006°09'3 4.0
2019-Oct-05 16:53N 53°21' W 006°13'0 0.0
2019-Oct-05 16:23N 53°21' W 006°13'0 0.0
2019-Oct-05 15:55N 53°21' W 006°13'0 0.0
2019-Oct-05 15:20N 53°21' W 006°13'0 0.0
2019-Oct-05 14:50N 53°21' W 006°13'0 0.0
2019-Oct-05 14:17N 53°21' W 006°13'0 0.0
2019-Oct-05 13:44N 53°21' W 006°13'0 0.0
2019-Oct-05 13:29N 53°21' W 006°13'0 0.0
2019-Oct-05 12:59N 53°21' W 006°13'0 0.0
2019-Oct-05 12:29N 53°21' W 006°13'0 0.0
2019-Oct-05 11:59N 53°21' W 006°13'0 0.0
2019-Oct-05 11:26N 53°21' W 006°13'0 0.0
2019-Oct-05 10:50N 53°21' W 006°13'0 0.0
2019-Oct-05 10:30N 53°21' W 006°13'0 0.0
2019-Oct-05 09:57N 53°21' W 006°13'0 0.0
2019-Oct-05 09:14N 53°21' W 006°13'0 0.0
2019-Oct-05 08:58N 53°21' W 006°13'0 0.0
2019-Oct-05 08:11N 53°21' W 006°13'0 0.0
2019-Oct-05 07:59N 53°21' W 006°13'0 0.0
2019-Oct-05 07:12N 53°21' W 006°13'0 0.0
2019-Oct-05 07:00N 53°21' W 006°13'0 0.0
2019-Oct-05 06:30N 53°21' W 006°13'0 0.0
2019-Oct-05 05:53N 53°21' W 006°13'0 0.0
2019-Oct-05 05:17N 53°21' W 006°13'0 0.0
2019-Oct-05 04:58N 53°21' W 006°13'0 0.0
2019-Oct-05 04:28N 53°21' W 006°13'0 0.0
2019-Oct-05 03:55N 53°21' W 006°13'0 0.0
2019-Oct-05 03:22N 53°21' W 006°13'0 0.0
2019-Oct-05 02:46N 53°21' W 006°13'0 0.0
2019-Oct-05 02:10N 53°21' W 006°13'0 0.0
2019-Oct-05 01:58N 53°21' W 006°13'0 0.0
2019-Oct-05 01:28N 53°21' W 006°13'0 0.0
2019-Oct-05 00:58N 53°21' W 006°13'0 0.0
2019-Oct-05 00:25N 53°21' W 006°13'0 0.0
2019-Oct-04 23:58N 53°21' W 006°13'0 0.0
2019-Oct-04 23:28N 53°21' W 006°13'0 0.0
2019-Oct-04 22:48N 53°21' W 006°13'0 0.0
2019-Oct-04 22:12N 53°21' W 006°13'0 0.0
2019-Oct-04 22:00N 53°21' W 006°13'0 0.0
2019-Oct-04 21:29N 53°21' W 006°13'0 0.0
2019-Oct-04 20:56N 53°21' W 006°13'0 0.0
2019-Oct-04 20:23N 53°21' W 006°13'0 0.0
2019-Oct-04 19:50N 53°21' W 006°13'0 0.0
2019-Oct-04 19:14N 53°21' W 006°13'0 0.0
2019-Oct-04 18:59N 53°21' W 006°13'0 0.0
2019-Oct-04 18:29N 53°21' W 006°13'0 0.0
2019-Oct-04 17:59N 53°21' W 006°13'0 0.0
2019-Oct-04 17:26N 53°21' W 006°13'0 0.0
2019-Oct-04 16:50N 53°21' W 006°13'0 0.0
2019-Oct-04 16:23N 53°21' W 006°13'0 0.0
2019-Oct-04 15:47N 53°21' W 006°13'0 0.0
2019-Oct-04 15:14N 53°21' W 006°13'0 0.0
2019-Oct-04 15:00N 53°21' W 006°13'0 0.0
2019-Oct-04 14:28N 53°21' W 006°13'0 0.0
2019-Oct-04 13:58N 53°21' W 006°13'0 0.0
2019-Oct-04 13:18N 53°21' W 006°13'0 0.0
2019-Oct-04 13:00N 53°21' W 006°13'0 0.2
2019-Oct-04 12:31N 53°21' W 006°13'1 1.9
2019-Oct-04 12:01N 53°21' W 006°12'3 5.6
2019-Oct-04 11:31N 53°21' W 006°07'5 9.0
2019-Oct-04 10:56N 53°22' W 005°59'613.7
2019-Oct-04 10:29N 53°26' W 005°51'56 1.6
2019-Oct-02 23:45N 54°16' W 005°09'2 7.7
2019-Oct-02 23:29N 54°18' W 005°10'4 7.3
2019-Oct-02 23:00N 54°22' W 005°12'4 7.2
2019-Oct-02 22:30N 54°25' W 005°14'4 7.0
2019-Oct-02 22:00N 54°28' W 005°15'3 6.8
2019-Oct-02 21:29N 54°32' W 005°17'4 7.0
2019-Oct-02 20:59N 54°35' W 005°19'3 7.1
2019-Oct-02 20:30N 54°38' W 005°21'3 6.6
2019-Oct-02 20:00N 54°41' W 005°24'4 7.2
2019-Oct-02 19:30N 54°44' W 005°28'4 7.1
2019-Oct-02 18:59N 54°44' W 005°35'4 7.7
2019-Oct-02 18:29N 54°42' W 005°41'4 8.5
2019-Oct-02 18:00N 54°41' W 005°47'5 9.1
2019-Oct-02 17:30N 54°38' W 005°53'0 0.6
2019-Oct-02 16:56N 54°38' W 005°53'0 0.0
2019-Oct-02 16:29N 54°38' W 005°53'0 0.0
2019-Oct-02 15:59N 54°38' W 005°53'0 0.0
2019-Oct-02 15:23N 54°38' W 005°53'0 0.0
2019-Oct-02 14:56N 54°38' W 005°53'0 0.0
2019-Oct-02 14:23N 54°38' W 005°53'0 0.0
2019-Oct-02 13:59N 54°38' W 005°53'0 0.0
2019-Oct-02 13:29N 54°38' W 005°53'0 0.0
2019-Oct-02 12:59N 54°38' W 005°53'0 0.0
2019-Oct-02 12:29N 54°38' W 005°53'0 0.0
2019-Oct-02 11:59N 54°38' W 005°53'0 0.0
2019-Oct-02 11:26N 54°38' W 005°53'0 0.0
2019-Oct-02 10:59N 54°38' W 005°53'0 0.0
2019-Oct-02 10:26N 54°38' W 005°53'0 0.0
2019-Oct-02 09:59N 54°38' W 005°53'0 0.0
2019-Oct-02 09:28N 54°38' W 005°53'0 0.0
2019-Oct-02 08:51N 54°38' W 005°53'0 0.0
2019-Oct-02 08:21N 54°38' W 005°53'0 0.0
2019-Oct-02 07:51N 54°38' W 005°53'0 0.0
2019-Oct-02 07:27N 54°38' W 005°53'0 0.0
2019-Oct-02 06:53N 54°38' W 005°53'0 0.3
2019-Oct-02 06:22N 54°38' W 005°53'2 5.9
2019-Oct-02 06:00N 54°39' W 005°51'4 8.6
2019-Oct-02 05:30N 54°42' W 005°45'5 9.2
2019-Oct-02 05:00N 54°45' W 005°39'510.9
2019-Oct-02 04:30N 54°50' W 005°38'1610.4
2019-Oct-02 02:57N 55°05' W 005°49'510.2
2019-Oct-02 02:30N 55°09' W 005°53'510.2
2019-Oct-02 02:00N 55°13' W 005°58'510.3
2019-Oct-02 01:30N 55°18' W 006°03'510.1
2019-Oct-02 01:00N 55°21' W 006°09'510.5
2019-Oct-02 00:30N 55°22' W 006°18'5 9.8
2019-Oct-02 00:00N 55°24' W 006°27'510.1
2019-Oct-01 23:30N 55°26' W 006°35'510.4
2019-Oct-01 23:00N 55°29' W 006°42'510.7
2019-Oct-01 22:30N 55°32' W 006°50'510.6
2019-Oct-01 22:00N 55°35' W 006°57'510.9
2019-Oct-01 21:30N 55°41' W 006°57'510.8
2019-Oct-01 21:00N 55°46' W 006°56'510.9
2019-Oct-01 20:30N 55°51' W 006°55'611.4
2019-Oct-01 19:59N 55°57' W 006°54'55 2.5
2019-Sep-30 21:48N 56°31' W 005°35'3 6.8
2019-Sep-30 21:23N 56°33' W 005°31'5 6.3
2019-Sep-30 20:37N 56°37' W 005°25'0 0.0
2019-Sep-30 05:52N 56°37' W 005°25'3 7.8
2019-Sep-30 05:28N 56°35' W 005°29'4 7.8
2019-Sep-30 05:00N 56°32' W 005°33'  
Track history (hours):
 
Tides and Currents Weather Stations Pressure Air Temp Water Temp Dewpoint Dewpoint Depression Visibility Wind Speed Wind Dir Waves Ship Positions

Bremen

Operator: Hapag-Lloyd Container Line

Last reported at 2019-Oct-10 00:49 UTC. Time now 2019-Oct-22 23:35 UTC.
Position N 37°32' W 010°45'.
Warning: this ship's position is 12 days out of date.

Length 111.5 m; beam 17 m; draft 4.8 m.

Type: Ship. MMSI: 308429000.

Date/timePositionNaut miles runAvg speedWind from/ knotsBaromVisibWave heightAir tempDewpointWater temp
2019-Oct-10 00:49N 37°32' W 010°45'414.2
2019-Oct-10 00:30N 37°35' W 010°41'714.4
2019-Oct-10 00:00N 37°40' W 010°35'814.1
2019-Oct-09 23:26N 37°46' W 010°28'614.4
2019-Oct-09 23:00N 37°50' W 010°22'714.5
2019-Oct-09 22:30N 37°55' W 010°15'714.3
2019-Oct-09 22:00N 38°00' W 010°09'714.5
2019-Oct-09 21:30N 38°06' W 010°03'714.3
2019-Oct-09 21:01N 38°11' W 009°57'714.3
2019-Oct-09 20:31N 38°15' W 009°50'714.6
2019-Oct-09 20:00N 38°21' W 009°43'714.7
2019-Oct-09 19:30N 38°26' W 009°37'714.8
2019-Oct-09 19:01N 38°31' W 009°30'815.0
2019-Oct-09 18:30N 38°37' W 009°23'714.4
2019-Oct-09 18:01N 38°41' W 009°16'611.8
2019-Oct-09 17:31N 38°42' W 009°09'2 3.0
2019-Oct-09 16:58N 38°43' W 009°07'0 0.0
2019-Oct-09 16:28N 38°43' W 009°07'0 0.0
2019-Oct-09 15:58N 38°43' W 009°07'0 0.0
2019-Oct-09 15:30N 38°43' W 009°07'0 0.0
2019-Oct-09 15:00N 38°43' W 009°07'0 0.0
2019-Oct-09 14:30N 38°43' W 009°07'0 0.0
2019-Oct-09 13:59N 38°43' W 009°07'0 0.0
2019-Oct-09 13:28N 38°43' W 009°07'0 0.0
2019-Oct-09 12:58N 38°43' W 009°07'0 0.0
2019-Oct-09 12:27N 38°43' W 009°07'0 0.0
2019-Oct-09 11:59N 38°43' W 009°07'0 0.0
2019-Oct-09 11:30N 38°43' W 009°07'0 0.0
2019-Oct-09 11:00N 38°43' W 009°07'0 0.0
2019-Oct-09 10:30N 38°43' W 009°07'0 0.0
2019-Oct-09 10:00N 38°43' W 009°07'0 0.0
2019-Oct-09 09:30N 38°43' W 009°07'0 0.0
2019-Oct-09 08:59N 38°43' W 009°07'0 0.0
2019-Oct-09 08:28N 38°43' W 009°07'0 0.0
2019-Oct-09 07:59N 38°43' W 009°07'0 0.4
2019-Oct-09 07:30N 38°43' W 009°07'5 9.8
2019-Oct-09 07:00N 38°41' W 009°13'4 8.9
2019-Oct-09 06:30N 38°40' W 009°19'4 8.8
2019-Oct-09 06:00N 38°37' W 009°23'5 9.4
2019-Oct-09 05:30N 38°37' W 009°29'5 9.8
2019-Oct-09 05:00N 38°37' W 009°35'5 9.3
2019-Oct-09 04:30N 38°39' W 009°41'5 9.6
2019-Oct-09 04:00N 38°44' W 009°42'510.3
2019-Oct-09 03:30N 38°49' W 009°42'510.3
2019-Oct-09 03:00N 38°54' W 009°43'510.3
2019-Oct-09 02:30N 38°59' W 009°43'510.3
2019-Oct-09 02:00N 39°04' W 009°44'510.2
2019-Oct-09 01:30N 39°09' W 009°44'510.1
2019-Oct-09 01:00N 39°14' W 009°45'510.3
2019-Oct-09 00:30N 39°20' W 009°45'610.3
2019-Oct-08 23:53N 39°26' W 009°46'51811.4
2019-Oct-07 02:36N 47°52' W 007°16'210 8.7
2019-Oct-06 02:35N 51°17' W 006°03'112.0
2019-Oct-06 02:30N 51°18' W 006°03'612.7
2019-Oct-06 02:00N 51°24' W 006°02'713.7
2019-Oct-06 01:30N 51°31' W 006°01'7013.8
2019-Oct-05 20:23N 52°41' W 005°51'615.8
2019-Oct-05 20:00N 52°47' W 005°52'815.9
2019-Oct-05 19:30N 52°55' W 005°53'816.2
2019-Oct-05 19:00N 53°03' W 005°55'815.8
2019-Oct-05 18:30N 53°11' W 005°58'715.1
2019-Oct-05 18:00N 53°18' W 006°02'510.3
2019-Oct-05 17:30N 53°21' W 006°09'3 4.0
2019-Oct-05 16:53N 53°21' W 006°13'0 0.0
2019-Oct-05 16:23N 53°21' W 006°13'0 0.0
2019-Oct-05 15:55N 53°21' W 006°13'0 0.0
2019-Oct-05 15:20N 53°21' W 006°13'0 0.0
2019-Oct-05 14:50N 53°21' W 006°13'0 0.0
2019-Oct-05 14:17N 53°21' W 006°13'0 0.0
2019-Oct-05 13:44N 53°21' W 006°13'0 0.0
2019-Oct-05 13:29N 53°21' W 006°13'0 0.0
2019-Oct-05 12:59N 53°21' W 006°13'0 0.0
2019-Oct-05 12:29N 53°21' W 006°13'0 0.0
2019-Oct-05 11:59N 53°21' W 006°13'0 0.0
2019-Oct-05 11:26N 53°21' W 006°13'0 0.0
2019-Oct-05 10:50N 53°21' W 006°13'0 0.0
2019-Oct-05 10:30N 53°21' W 006°13'0 0.0
2019-Oct-05 09:57N 53°21' W 006°13'0 0.0
2019-Oct-05 09:14N 53°21' W 006°13'0 0.0
2019-Oct-05 08:58N 53°21' W 006°13'0 0.0
2019-Oct-05 08:11N 53°21' W 006°13'0 0.0
2019-Oct-05 07:59N 53°21' W 006°13'0 0.0
2019-Oct-05 07:12N 53°21' W 006°13'0 0.0
2019-Oct-05 07:00N 53°21' W 006°13'0 0.0
2019-Oct-05 06:30N 53°21' W 006°13'0 0.0
2019-Oct-05 05:53N 53°21' W 006°13'0 0.0
2019-Oct-05 05:17N 53°21' W 006°13'0 0.0
2019-Oct-05 04:58N 53°21' W 006°13'0 0.0
2019-Oct-05 04:28N 53°21' W 006°13'0 0.0
2019-Oct-05 03:55N 53°21' W 006°13'0 0.0
2019-Oct-05 03:22N 53°21' W 006°13'0 0.0
2019-Oct-05 02:46N 53°21' W 006°13'0 0.0
2019-Oct-05 02:10N 53°21' W 006°13'0 0.0
2019-Oct-05 01:58N 53°21' W 006°13'0 0.0
2019-Oct-05 01:28N 53°21' W 006°13'0 0.0
2019-Oct-05 00:58N 53°21' W 006°13'0 0.0
2019-Oct-05 00:25N 53°21' W 006°13'0 0.0
2019-Oct-04 23:58N 53°21' W 006°13'0 0.0
2019-Oct-04 23:28N 53°21' W 006°13'0 0.0
2019-Oct-04 22:48N 53°21' W 006°13'0 0.0
2019-Oct-04 22:12N 53°21' W 006°13'0 0.0
2019-Oct-04 22:00N 53°21' W 006°13'0 0.0
2019-Oct-04 21:29N 53°21' W 006°13'0 0.0
2019-Oct-04 20:56N 53°21' W 006°13'0 0.0
2019-Oct-04 20:23N 53°21' W 006°13'0 0.0
2019-Oct-04 19:50N 53°21' W 006°13'0 0.0
2019-Oct-04 19:14N 53°21' W 006°13'0 0.0
2019-Oct-04 18:59N 53°21' W 006°13'0 0.0
2019-Oct-04 18:29N 53°21' W 006°13'0 0.0
2019-Oct-04 17:59N 53°21' W 006°13'0 0.0
2019-Oct-04 17:26N 53°21' W 006°13'0 0.0
2019-Oct-04 16:50N 53°21' W 006°13'0 0.0
2019-Oct-04 16:23N 53°21' W 006°13'0 0.0
2019-Oct-04 15:47N 53°21' W 006°13'0 0.0
2019-Oct-04 15:14N 53°21' W 006°13'0 0.0
2019-Oct-04 15:00N 53°21' W 006°13'0 0.0
2019-Oct-04 14:28N 53°21' W 006°13'0 0.0
2019-Oct-04 13:58N 53°21' W 006°13'0 0.0
2019-Oct-04 13:18N 53°21' W 006°13'0 0.0
2019-Oct-04 13:00N 53°21' W 006°13'0 0.2
2019-Oct-04 12:31N 53°21' W 006°13'1 1.9
2019-Oct-04 12:01N 53°21' W 006°12'3 5.6
2019-Oct-04 11:31N 53°21' W 006°07'5 9.0
2019-Oct-04 10:56N 53°22' W 005°59'613.7
2019-Oct-04 10:29N 53°26' W 005°51'56 1.6
2019-Oct-02 23:45N 54°16' W 005°09'2 7.7
2019-Oct-02 23:29N 54°18' W 005°10'4 7.3
2019-Oct-02 23:00N 54°22' W 005°12'4 7.2
2019-Oct-02 22:30N 54°25' W 005°14'4 7.0
2019-Oct-02 22:00N 54°28' W 005°15'3 6.8
2019-Oct-02 21:29N 54°32' W 005°17'4 7.0
2019-Oct-02 20:59N 54°35' W 005°19'3 7.1
2019-Oct-02 20:30N 54°38' W 005°21'3 6.6
2019-Oct-02 20:00N 54°41' W 005°24'4 7.2
2019-Oct-02 19:30N 54°44' W 005°28'4 7.1
2019-Oct-02 18:59N 54°44' W 005°35'4 7.7
2019-Oct-02 18:29N 54°42' W 005°41'4 8.5
2019-Oct-02 18:00N 54°41' W 005°47'5 9.1
2019-Oct-02 17:30N 54°38' W 005°53'0 0.6
2019-Oct-02 16:56N 54°38' W 005°53'0 0.0
2019-Oct-02 16:29N 54°38' W 005°53'0 0.0
2019-Oct-02 15:59N 54°38' W 005°53'0 0.0
2019-Oct-02 15:23N 54°38' W 005°53'0 0.0
2019-Oct-02 14:56N 54°38' W 005°53'0 0.0
2019-Oct-02 14:23N 54°38' W 005°53'0 0.0
2019-Oct-02 13:59N 54°38' W 005°53'0 0.0
2019-Oct-02 13:29N 54°38' W 005°53'0 0.0
2019-Oct-02 12:59N 54°38' W 005°53'0 0.0
2019-Oct-02 12:29N 54°38' W 005°53'0 0.0
2019-Oct-02 11:59N 54°38' W 005°53'0 0.0
2019-Oct-02 11:26N 54°38' W 005°53'0 0.0
2019-Oct-02 10:59N 54°38' W 005°53'0 0.0
2019-Oct-02 10:26N 54°38' W 005°53'0 0.0
2019-Oct-02 09:59N 54°38' W 005°53'0 0.0
2019-Oct-02 09:28N 54°38' W 005°53'0 0.0
2019-Oct-02 08:51N 54°38' W 005°53'0 0.0
2019-Oct-02 08:21N 54°38' W 005°53'0 0.0
2019-Oct-02 07:51N 54°38' W 005°53'0 0.0
2019-Oct-02 07:27N 54°38' W 005°53'0 0.0
2019-Oct-02 06:53N 54°38' W 005°53'0 0.3
2019-Oct-02 06:22N 54°38' W 005°53'2 5.9
2019-Oct-02 06:00N 54°39' W 005°51'4 8.6
2019-Oct-02 05:30N 54°42' W 005°45'5 9.2
2019-Oct-02 05:00N 54°45' W 005°39'510.9
2019-Oct-02 04:30N 54°50' W 005°38'1610.4
2019-Oct-02 02:57N 55°05' W 005°49'510.2
2019-Oct-02 02:30N 55°09' W 005°53'510.2
2019-Oct-02 02:00N 55°13' W 005°58'510.3
2019-Oct-02 01:30N 55°18' W 006°03'510.1
2019-Oct-02 01:00N 55°21' W 006°09'510.5
2019-Oct-02 00:30N 55°22' W 006°18'5 9.8
2019-Oct-02 00:00N 55°24' W 006°27'510.1
2019-Oct-01 23:30N 55°26' W 006°35'510.4
2019-Oct-01 23:00N 55°29' W 006°42'510.7
2019-Oct-01 22:30N 55°32' W 006°50'510.6
2019-Oct-01 22:00N 55°35' W 006°57'510.9
2019-Oct-01 21:30N 55°41' W 006°57'510.8
2019-Oct-01 21:00N 55°46' W 006°56'510.9
2019-Oct-01 20:30N 55°51' W 006°55'611.4
2019-Oct-01 19:59N 55°57' W 006°54'55 2.5
2019-Sep-30 21:48N 56°31' W 005°35'3 6.8
2019-Sep-30 21:23N 56°33' W 005°31'5 6.3
2019-Sep-30 20:37N 56°37' W 005°25'0 0.0
2019-Sep-30 05:52N 56°37' W 005°25'3 7.8
2019-Sep-30 05:28N 56°35' W 005°29'4 7.8
2019-Sep-30 05:00N 56°32' W 005°33'  

Dump ship's entire track history